Terminal Aerodrome Forecast
Issued by NWS

Home | Current Version | Previous Version | Graphics & Text | Print | Product List | Glossary On
Versions: 1 2 3 4 5 6 7 8 9 10 11 12 13 14 15 16 17 18 19 20 21 22 23 24 25
239
FTUS43 KLOT 110855 AAA
TAFMDW
TAF AMD
KMDW 110855Z 1109/1206 33009KT P6SM SCT120 SCT250
     FM120200 26005KT P6SM BKN090 BKN250=

USA.gov is the U.S. government's official web portal to all federal, state and local government web resources and services.